Map

Track Data

SID SEASON NUMBER BASIN SUBBASIN NAME ISO_TIME NATURE LAT LON WMO_WIND WMO_PRES WMO_AGENCY TRACK_TYPE DIST2LAND LANDFALL IFLAG USA_AGENCY USA_ATCF_ID USA_LAT USA_LON USA_RECORD USA_STATUS USA_WIND USA_PRES USA_SSHS USA_R34_NE USA_R34_SE USA_R34_SW USA_R34_NW USA_R50_NE USA_R50_SE USA_R50_SW USA_R50_NW USA_R64_NE USA_R64_SE USA_R64_SW USA_R64_NW USA_POCI USA_ROCI USA_RMW USA_EYE TOKYO_LAT TOKYO_LON TOKYO_GRADE TOKYO_WIND TOKYO_PRES TOKYO_R50_DIR TOKYO_R50_LONG TOKYO_R50_SHORT TOKYO_R30_DIR TOKYO_R30_LONG TOKYO_R30_SHORT TOKYO_LAND CMA_LAT CMA_LON CMA_CAT CMA_WIND CMA_PRES HKO_LAT HKO_LON HKO_CAT HKO_WIND HKO_PRES NEWDELHI_LAT NEWDELHI_LON NEWDELHI_GRADE NEWDELHI_WIND NEWDELHI_PRES NEWDELHI_CI NEWDELHI_DP NEWDELHI_POCI REUNION_LAT REUNION_LON REUNION_TYPE REUNION_WIND REUNION_PRES REUNION_TNUM REUNION_CI REUNION_RMW REUNION_R34_NE REUNION_R34_SE REUNION_R34_SW REUNION_R34_NW REUNION_R50_NE REUNION_R50_SE REUNION_R50_SW REUNION_R50_NW REUNION_R64_NE REUNION_R64_SE REUNION_R64_SW REUNION_R64_NW BOM_LAT BOM_LON BOM_TYPE BOM_WIND BOM_PRES BOM_TNUM BOM_CI BOM_RMW BOM_R34_NE BOM_R34_SE BOM_R34_SW BOM_R34_NW BOM_R50_NE BOM_R50_SE BOM_R50_SW BOM_R50_NW BOM_R64_NE BOM_R64_SE BOM_R64_SW BOM_R64_NW BOM_ROCI BOM_POCI BOM_EYE BOM_POS_METHOD BOM_PRES_METHOD NADI_LAT NADI_LON NADI_CAT NADI_WIND NADI_PRES WELLINGTON_LAT WELLINGTON_LON WELLINGTON_WIND WELLINGTON_PRES DS824_LAT DS824_LON DS824_STAGE DS824_WIND DS824_PRES TD9636_LAT TD9636_LON TD9636_STAGE TD9636_WIND TD9636_PRES TD9635_LAT TD9635_LON TD9635_WIND TD9635_PRES TD9635_ROCI NEUMANN_LAT NEUMANN_LON NEUMANN_CLASS NEUMANN_WIND NEUMANN_PRES MLC_LAT MLC_LON MLC_CLASS MLC_WIND MLC_PRES USA_GUST BOM_GUST BOM_GUST_PER REUNION_GUST REUNION_GUST_PER USA_SEAHGT USA_SEARAD_NE USA_SEARAD_SE USA_SEARAD_SW USA_SEARAD_NW STORM_SPEED STORM_DIR
1942224N26139 1942 38 WP MM NOT_NAMED 1942-08-11 12:00:00 NR 26.3000 138.900 main 846 840 __________O___ -1 26.3000 138.900 4 3 250
1942224N26139 1942 38 WP MM NOT_NAMED 1942-08-11 15:00:00 NR 26.2421 138.716 main 850 844 __________P___ -1 26.2421 138.716 4 4 250
1942224N26139 1942 38 WP MM NOT_NAMED 1942-08-11 18:00:00 NR 26.1774 138.516 main 844 841 __________P___ -1 26.1774 138.516 4 4 250
1942224N26139 1942 38 WP MM NOT_NAMED 1942-08-11 21:00:00 NR 26.0989 138.282 main 849 844 __________P___ -1 26.0989 138.282 4 5 249
1942224N26139 1942 38 WP MM NOT_NAMED 1942-08-12 00:00:00 NR 26.0000 138.000 main 852 850 __________O___ -1 26.0000 138.000 4 6 249
1942224N26139 1942 38 WP MM NOT_NAMED 1942-08-12 03:00:00 NR 25.8788 137.658 main 856 849 __________P___ -1 25.8788 137.658 4 7 250
1942224N26139 1942 38 WP MM NOT_NAMED 1942-08-12 06:00:00 NR 25.7550 137.266 main 849 832 __________P___ -1 25.7550 137.266 4 8 253
1942224N26139 1942 38 WP MM NOT_NAMED 1942-08-12 09:00:00 NR 25.6537 136.842 main 825 810 __________P___ -1 25.6537 136.842 4 8 259
1942224N26139 1942 38 WP MM NOT_NAMED 1942-08-12 12:00:00 NR 25.6000 136.400 main 810 787 __________O___ -1 25.6000 136.400 4 8 265
1942224N26139 1942 38 WP MM NOT_NAMED 1942-08-12 15:00:00 NR 25.5918 135.972 main 787 766 __________P___ -1 25.5918 135.972 4 8 273
1942224N26139 1942 38 WP MM NOT_NAMED 1942-08-12 18:00:00 NR 25.6370 135.529 main 761 731 __________P___ -1 25.6370 135.529 4 8 280
1942224N26139 1942 38 WP MM NOT_NAMED 1942-08-12 21:00:00 NR 25.7386 135.072 main 731 684 __________P___ -1 25.7386 135.072 4 9 287
1942224N26139 1942 38 WP MM NOT_NAMED 1942-08-13 00:00:00 NR 25.9000 134.600 main 684 639 __________O___ -1 25.9000 134.600 4 9 293
1942224N26139 1942 38 WP MM NOT_NAMED 1942-08-13 03:00:00 NR 26.1054 134.099 main 639 586 __________P___ -1 26.1054 134.099 4 10 297
1942224N26139 1942 38 WP MM NOT_NAMED 1942-08-13 06:00:00 NR 26.3677 133.586 main 586 533 __________P___ -1 26.3677 133.586 4 11 302
1942224N26139 1942 38 WP MM NOT_NAMED 1942-08-13 09:00:00 NR 26.6711 133.080 main 533 483 __________P___ -1 26.6711 133.080 4 11 306
1942224N26139 1942 38 WP MM NOT_NAMED 1942-08-13 12:00:00 NR 27.0000 132.600 main 483 437 __________O___ -1 27.0000 132.600 4 11 309
1942224N26139 1942 38 WP MM NOT_NAMED 1942-08-13 15:00:00 NR 27.3413 132.161 main 437 383 __________P___ -1 27.3413 132.161 4 10 313
1942224N26139 1942 38 WP MM NOT_NAMED 1942-08-13 18:00:00 NR 27.6902 131.756 main 383 341 __________P___ -1 27.6902 131.756 4 10 315
1942224N26139 1942 38 WP MM NOT_NAMED 1942-08-13 21:00:00 NR 28.0441 131.373 main 341 291 __________P___ -1 28.0441 131.373 4 10 317
1942224N26139 1942 38 WP MM NOT_NAMED 1942-08-14 00:00:00 NR 28.4000 131.000 main 291 __________O___ -1 28.4000 131.000 4 10 317

Digital Typhoon Data and Search

About IBTrACS Database

This database is a web-friendly format of International Best Track Archive for Climate Stewardship (IBTrACS), a global best track data archive curated by NOAA dating back to 1842.

Updated: 2021-12-06